createdAt,value
2022-11-12T00:01:46.351Z,9.13
2022-11-12T00:04:31.819Z,9.14
2022-11-12T00:07:16.939Z,9.12
2022-11-12T00:10:02.302Z,9.03
2022-11-12T00:12:47.456Z,8.99
2022-11-12T00:15:32.868Z,9.05
2022-11-12T00:18:18.072Z,9.04
2022-11-12T00:21:03.108Z,8.72
2022-11-12T00:23:48.299Z,8.38
2022-11-12T00:26:33.308Z,8.65
2022-11-12T00:29:18.656Z,8.60
2022-11-12T00:32:05.338Z,8.67
2022-11-12T00:34:51.344Z,8.71
2022-11-12T00:37:36.744Z,8.79
2022-11-12T00:40:21.767Z,8.73
2022-11-12T00:43:06.641Z,8.83
2022-11-12T00:45:51.950Z,8.76
2022-11-12T00:48:37.329Z,8.77
2022-11-12T00:51:23.384Z,8.72
2022-11-12T00:54:08.567Z,8.54
2022-11-12T00:56:53.976Z,8.66
2022-11-12T00:59:38.939Z,8.61
2022-11-12T01:02:24.227Z,8.62
2022-11-12T01:05:09.559Z,8.58
2022-11-12T01:07:56.151Z,8.25
2022-11-12T01:10:41.522Z,8.38
2022-11-12T01:13:27.440Z,8.33
2022-11-12T01:16:22.095Z,8.40
2022-11-12T01:19:10.386Z,8.40
2022-11-12T01:21:55.441Z,8.40
2022-11-12T01:24:40.893Z,8.48
2022-11-12T01:27:25.999Z,8.54
2022-11-12T01:30:11.292Z,8.56
2022-11-12T01:32:56.906Z,8.48
2022-11-12T01:35:42.018Z,8.36
2022-11-12T01:38:27.693Z,7.87
2022-11-12T01:41:20.815Z,7.94
2022-11-12T01:44:07.565Z,8.06
2022-11-12T01:47:01.582Z,8.25
2022-11-12T01:49:56.865Z,8.28
2022-11-12T01:52:49.933Z,8.40
2022-11-12T01:55:37.323Z,8.37
2022-11-12T01:58:28.006Z,8.19
2022-11-12T02:01:14.452Z,8.15
2022-11-12T02:03:59.975Z,7.95
2022-11-12T02:06:45.546Z,7.89
2022-11-12T02:09:32.190Z,7.96
2022-11-12T02:12:36.358Z,8.28
2022-11-12T02:15:21.936Z,8.14
2022-11-12T02:18:08.193Z,8.23
2022-11-12T02:20:57.094Z,8.20
2022-11-12T02:23:42.550Z,8.11
2022-11-12T02:26:37.014Z,7.90
2022-11-12T02:29:22.855Z,7.66
2022-11-12T02:32:08.401Z,7.42
2022-11-12T02:34:53.457Z,7.62
2022-11-12T02:37:38.917Z,7.74
2022-11-12T02:40:24.394Z,7.84
2022-11-12T02:43:09.900Z,7.85
2022-11-12T02:45:55.398Z,7.82
2022-11-12T02:48:40.874Z,7.98
2022-11-12T02:51:26.347Z,8.02
2022-11-12T02:54:11.499Z,8.08
2022-11-12T02:56:56.985Z,7.95
2022-11-12T02:59:42.136Z,7.77
2022-11-12T03:02:27.415Z,7.88
2022-11-12T03:05:12.628Z,7.65
2022-11-12T03:07:59.726Z,7.83
2022-11-12T03:10:45.022Z,7.67
2022-11-12T03:13:30.339Z,7.65
2022-11-12T03:16:15.618Z,7.67
2022-11-12T03:19:01.034Z,7.74
2022-11-12T03:21:46.457Z,7.78
2022-11-12T03:24:31.739Z,7.75
2022-11-12T03:27:16.645Z,7.85
2022-11-12T03:30:02.036Z,7.83
2022-11-12T03:32:47.382Z,7.85
2022-11-12T03:35:33.758Z,7.81
2022-11-12T03:38:18.931Z,7.91
2022-11-12T03:41:04.449Z,7.80
2022-11-12T03:43:49.988Z,7.76
2022-11-12T03:46:36.185Z,7.73
2022-11-12T03:49:24.022Z,7.72
2022-11-12T03:52:09.398Z,7.82
2022-11-12T03:54:54.391Z,7.88
2022-11-12T03:57:39.502Z,7.69
2022-11-12T04:00:27.151Z,7.51
2022-11-12T04:03:12.395Z,7.49
2022-11-12T04:06:16.291Z,7.51
2022-11-12T04:09:01.633Z,7.70
2022-11-12T04:11:46.909Z,7.69
2022-11-12T04:14:32.119Z,7.73
2022-11-12T04:17:55.163Z,7.59
2022-11-12T04:20:59.007Z,7.67
2022-11-12T04:23:44.398Z,7.53
2022-11-12T04:26:29.498Z,7.65
2022-11-12T04:29:37.447Z,7.71
2022-11-12T04:32:23.823Z,7.74
2022-11-12T04:35:09.847Z,7.73
2022-11-12T04:37:55.236Z,7.62
2022-11-12T04:40:59.205Z,7.53
2022-11-12T04:44:03.060Z,7.52
2022-11-12T04:46:48.537Z,7.56
2022-11-12T04:49:33.818Z,7.74
2022-11-12T04:52:19.046Z,7.74
2022-11-12T04:55:05.175Z,7.59
2022-11-12T04:57:50.914Z,7.57
2022-11-12T05:00:37.301Z,7.65
2022-11-12T05:03:22.229Z,7.84
2022-11-12T05:06:26.524Z,7.77
2022-11-12T05:09:11.853Z,7.76
2022-11-12T05:11:57.391Z,7.81
2022-11-12T05:14:42.819Z,7.78
2022-11-12T05:17:28.138Z,7.67
2022-11-12T05:20:15.116Z,7.61
2022-11-12T05:23:07.947Z,7.61
2022-11-12T05:25:53.415Z,7.54
2022-11-12T05:28:38.764Z,7.52
2022-11-12T05:31:25.463Z,7.50
2022-11-12T05:34:10.872Z,7.52
2022-11-12T05:36:56.196Z,7.48
2022-11-12T05:39:41.359Z,7.36
2022-11-12T05:42:26.420Z,7.59
2022-11-12T05:45:12.984Z,7.70
2022-11-12T05:47:58.081Z,7.19
2022-11-12T05:51:06.126Z,6.95
2022-11-12T05:53:48.820Z,6.89
2022-11-12T05:56:35.050Z,7.07
2022-11-12T05:59:20.576Z,7.18
2022-11-12T06:02:05.556Z,7.18
2022-11-12T06:04:50.870Z,7.28
2022-11-12T06:07:36.336Z,7.28
2022-11-12T06:10:21.364Z,7.31
2022-11-12T06:13:07.417Z,7.20
2022-11-12T06:15:54.453Z,7.46
2022-11-12T06:18:39.539Z,7.51
2022-11-12T06:21:27.148Z,7.28
2022-11-12T06:24:12.756Z,7.02
2022-11-12T06:26:58.126Z,6.94
2022-11-12T06:29:43.629Z,6.99
2022-11-12T06:32:28.684Z,6.99
2022-11-12T06:35:14.460Z,7.04
2022-11-12T06:37:59.850Z,7.10
2022-11-12T06:40:44.883Z,7.12
2022-11-12T06:43:31.892Z,7.22
2022-11-12T06:46:17.568Z,7.28
2022-11-12T06:49:02.894Z,7.28
2022-11-12T06:51:50.384Z,7.13
2022-11-12T06:54:35.563Z,6.98
2022-11-12T06:57:20.738Z,7.05
2022-11-12T07:00:06.494Z,7.08
2022-11-12T07:02:51.479Z,7.14
2022-11-12T07:05:38.371Z,7.26
2022-11-12T07:08:23.879Z,7.25
2022-11-12T07:11:09.670Z,6.89
2022-11-12T07:13:55.210Z,6.99
2022-11-12T07:16:40.368Z,7.00
2022-11-12T07:19:26.013Z,7.10
2022-11-12T07:22:11.012Z,6.85
2022-11-12T07:24:56.411Z,6.78
2022-11-12T07:27:41.735Z,6.88
2022-11-12T07:30:27.120Z,7.00
2022-11-12T07:33:12.250Z,7.10
2022-11-12T07:36:02.137Z,7.20
2022-11-12T07:38:50.236Z,7.29
2022-11-12T07:41:35.406Z,7.35
2022-11-12T07:44:20.397Z,7.46
2022-11-12T07:47:05.929Z,7.53
2022-11-12T07:49:51.143Z,7.62
2022-11-12T07:52:36.166Z,7.48
2022-11-12T07:55:21.570Z,7.36
2022-11-12T07:58:06.626Z,7.53
2022-11-12T08:00:52.387Z,7.34
2022-11-12T08:03:37.830Z,7.27
2022-11-12T08:06:23.648Z,7.29
2022-11-12T08:09:09.962Z,7.48
2022-11-12T08:11:54.904Z,7.73
2022-11-12T08:14:40.364Z,7.80
2022-11-12T08:17:25.340Z,7.99
2022-11-12T08:20:11.021Z,8.12
2022-11-12T08:23:00.341Z,8.24
2022-11-12T08:25:45.763Z,8.14
2022-11-12T08:28:34.035Z,8.19
2022-11-12T08:31:22.651Z,8.26
2022-11-12T08:34:17.443Z,8.45
2022-11-12T08:37:07.402Z,8.60
2022-11-12T08:39:53.237Z,8.81
2022-11-12T08:42:38.592Z,8.84
2022-11-12T08:45:23.900Z,8.85
2022-11-12T08:48:15.101Z,8.93
2022-11-12T08:51:05.458Z,9.16
2022-11-12T08:53:50.500Z,9.20
2022-11-12T08:56:35.763Z,9.36
2022-11-12T08:59:21.063Z,9.53
2022-11-12T09:02:11.606Z,9.73
2022-11-12T09:04:56.790Z,9.82
2022-11-12T09:07:50.702Z,10.08
2022-11-12T09:10:36.950Z,10.22
2022-11-12T09:13:22.052Z,10.26
2022-11-12T09:16:08.959Z,10.41
2022-11-12T09:18:54.027Z,10.46
2022-11-12T09:21:39.233Z,10.50
2022-11-12T09:24:24.704Z,10.56
2022-11-12T09:27:10.071Z,10.62
2022-11-12T09:29:55.411Z,10.68
2022-11-12T09:32:40.447Z,10.74
2022-11-12T09:35:25.821Z,10.86
2022-11-12T09:38:11.611Z,11.00
2022-11-12T09:41:02.952Z,11.10
2022-11-12T09:43:52.161Z,11.18
2022-11-12T09:46:48.077Z,11.26
2022-11-12T09:49:38.875Z,11.36
2022-11-12T09:52:27.443Z,11.37
2022-11-12T09:55:34.232Z,11.36
2022-11-12T09:58:19.631Z,11.35
2022-11-12T10:01:16.952Z,11.44
2022-11-12T10:04:27.605Z,11.53
2022-11-12T10:07:22.171Z,11.62
2022-11-12T10:10:15.507Z,11.77
2022-11-12T10:13:18.976Z,11.80
2022-11-12T10:16:47.109Z,11.90
2022-11-12T10:19:51.256Z,11.97
2022-11-12T10:22:46.047Z,12.16
2022-11-12T10:25:32.762Z,12.22
2022-11-12T10:28:27.891Z,12.28
2022-11-12T10:31:17.615Z,12.38
2022-11-12T10:34:19.283Z,12.53
2022-11-12T10:37:05.537Z,12.61
2022-11-12T10:39:51.316Z,12.70
2022-11-12T10:42:56.287Z,12.68
2022-11-12T10:45:42.380Z,12.66
2022-11-12T10:48:34.514Z,12.73
2022-11-12T10:51:27.022Z,12.78
2022-11-12T10:54:37.130Z,12.75
2022-11-12T10:57:26.837Z,12.65
2022-11-12T11:00:15.719Z,12.65
2022-11-12T11:03:03.295Z,12.74
2022-11-12T11:05:53.497Z,12.81
2022-11-12T11:08:44.874Z,12.91
2022-11-12T11:11:31.145Z,12.82
2022-11-12T11:14:22.401Z,12.84
2022-11-12T11:17:17.206Z,12.89
2022-11-12T11:20:11.019Z,12.98
2022-11-12T11:22:59.855Z,12.97
2022-11-12T11:25:51.082Z,13.00
2022-11-12T11:28:45.306Z,13.13
2022-11-12T11:31:53.037Z,13.19
2022-11-12T11:34:48.823Z,13.26
2022-11-12T11:37:59.070Z,13.23
2022-11-12T11:41:37.111Z,13.32
2022-11-12T11:44:43.322Z,13.27
2022-11-12T11:47:59.527Z,13.32
2022-11-12T11:51:20.948Z,13.48
2022-11-12T11:54:49.614Z,13.55
2022-11-12T11:57:55.362Z,13.60
2022-11-12T12:01:00.455Z,13.69
2022-11-12T12:04:22.416Z,13.76
2022-11-12T12:07:19.688Z,13.88
2022-11-12T12:13:57.918Z,13.69
2022-11-12T12:17:04.551Z,13.70
2022-11-12T12:20:10.001Z,13.84
2022-11-12T12:23:00.664Z,14.00
2022-11-12T12:25:49.091Z,13.98
2022-11-12T12:28:40.079Z,14.15
2022-11-12T12:31:31.173Z,14.23
2022-11-12T12:34:26.464Z,14.16
2022-11-12T12:37:35.885Z,14.20
2022-11-12T12:40:28.996Z,14.24
2022-11-12T12:43:18.295Z,14.23
2022-11-12T12:46:05.799Z,14.17
2022-11-12T12:48:53.961Z,14.17
2022-11-12T12:51:39.437Z,14.13
2022-11-12T12:54:51.980Z,14.19
2022-11-12T12:57:39.352Z,14.27
2022-11-12T13:00:40.872Z,14.35
2022-11-12T13:03:51.736Z,14.46
2022-11-12T13:06:46.472Z,14.50
2022-11-12T13:09:33.152Z,14.56
2022-11-12T13:12:18.626Z,14.61
2022-11-12T13:15:15.914Z,14.64
2022-11-12T13:18:01.345Z,14.69
2022-11-12T13:21:10.929Z,14.80
2022-11-12T13:24:07.807Z,14.78
2022-11-12T13:26:55.979Z,14.80
2022-11-12T13:29:42.781Z,14.75
2022-11-12T13:32:29.580Z,14.83
2022-11-12T13:35:22.041Z,14.86
2022-11-12T13:38:13.321Z,14.89
2022-11-12T13:41:10.939Z,14.81
2022-11-12T13:43:56.907Z,14.85
2022-11-12T13:46:44.201Z,14.77
2022-11-12T13:49:30.136Z,14.81
2022-11-12T13:52:16.070Z,14.68
2022-11-12T13:55:04.243Z,14.74
2022-11-12T13:57:54.166Z,14.66
2022-11-12T14:00:39.498Z,14.82
2022-11-12T14:03:28.783Z,15.02
2022-11-12T14:06:24.734Z,15.26
2022-11-12T14:09:47.657Z,15.16
2022-11-12T14:13:09.106Z,15.28
2022-11-12T14:16:24.738Z,15.23
2022-11-12T14:19:26.032Z,15.37
2022-11-12T14:22:16.554Z,15.43
2022-11-12T14:25:03.430Z,15.25
2022-11-12T14:27:55.609Z,15.34
2022-11-12T14:30:44.845Z,15.36
2022-11-12T14:33:32.361Z,15.38
2022-11-12T14:36:21.764Z,15.43
2022-11-12T14:39:07.232Z,15.39
2022-11-12T14:41:54.407Z,15.33
2022-11-12T14:44:39.540Z,15.41
2022-11-12T14:47:24.929Z,15.30
2022-11-12T14:50:40.199Z,15.20
2022-11-12T14:53:46.610Z,15.17
2022-11-12T14:56:35.959Z,15.17
2022-11-12T14:59:22.009Z,15.21
2022-11-12T15:02:31.678Z,15.12
2022-11-12T15:05:23.554Z,15.00
2022-11-12T15:08:12.052Z,14.90
2022-11-12T15:11:22.015Z,14.87
2022-11-12T15:14:19.689Z,14.65
2022-11-12T15:17:05.952Z,14.44
2022-11-12T15:19:51.281Z,14.33
2022-11-12T15:22:36.377Z,14.28
2022-11-12T15:25:23.876Z,14.14
2022-11-12T15:28:27.653Z,13.92
2022-11-12T15:31:19.484Z,13.89
2022-11-12T15:34:28.643Z,13.66
2022-11-12T15:37:22.908Z,13.41
2022-11-12T15:40:19.822Z,13.52
2022-11-12T15:43:15.894Z,13.65
2022-11-12T15:46:01.873Z,13.61
2022-11-12T15:48:51.392Z,13.65
2022-11-12T15:51:38.112Z,13.65
2022-11-12T15:54:23.444Z,13.57
2022-11-12T15:57:14.319Z,13.37
2022-11-12T16:00:15.459Z,13.45
2022-11-12T16:03:15.942Z,13.46
2022-11-12T16:06:05.692Z,13.55
2022-11-12T16:08:53.502Z,13.46
2022-11-12T16:11:39.237Z,13.44
2022-11-12T16:14:25.237Z,13.54
2022-11-12T16:17:16.441Z,13.64
2022-11-12T16:20:01.956Z,13.55
2022-11-12T16:22:48.579Z,13.50
2022-11-12T16:25:36.080Z,13.57
2022-11-12T16:28:21.604Z,13.63
2022-11-12T16:31:06.704Z,13.34
2022-11-12T16:33:52.266Z,12.97
2022-11-12T16:36:39.332Z,12.82
2022-11-12T16:39:24.722Z,12.72
2022-11-12T16:42:10.841Z,12.72
2022-11-12T16:44:55.911Z,12.44
2022-11-12T16:47:47.481Z,12.37
2022-11-12T16:50:32.823Z,12.49
2022-11-12T16:53:18.272Z,12.50
2022-11-12T16:56:03.633Z,12.57
2022-11-12T16:58:49.603Z,12.73
2022-11-12T17:01:34.678Z,12.87
2022-11-12T17:04:29.210Z,13.11
2022-11-12T17:07:14.490Z,13.22
2022-11-12T17:09:59.950Z,13.38
2022-11-12T17:12:48.767Z,13.45
2022-11-12T17:15:34.120Z,13.51
2022-11-12T17:18:19.485Z,13.56
2022-11-12T17:21:12.070Z,13.62
2022-11-12T17:23:57.885Z,13.57
2022-11-12T17:26:42.982Z,13.53
2022-11-12T17:29:28.418Z,13.59
2022-11-12T17:32:13.731Z,13.56
2022-11-12T17:34:59.543Z,13.50
2022-11-12T17:37:44.774Z,13.50
2022-11-12T17:40:30.710Z,13.51
2022-11-12T17:43:15.871Z,13.38
2022-11-12T17:46:02.385Z,13.23
2022-11-12T17:48:48.016Z,12.72
2022-11-12T17:51:33.402Z,12.81
2022-11-12T17:54:18.998Z,13.12
2022-11-12T17:57:04.424Z,13.21
2022-11-12T17:59:50.102Z,13.31
2022-11-12T18:02:35.428Z,13.25
2022-11-12T18:05:20.649Z,13.20
2022-11-12T18:08:06.163Z,13.17
2022-11-12T18:10:52.530Z,12.90
2022-11-12T18:13:38.139Z,12.78
2022-11-12T18:16:26.426Z,12.49
2022-11-12T18:19:12.660Z,12.37
2022-11-12T18:21:58.103Z,12.43
2022-11-12T18:24:43.489Z,12.37
2022-11-12T18:27:28.755Z,12.38
2022-11-12T18:30:19.145Z,12.44
2022-11-12T18:33:05.715Z,12.78
2022-11-12T18:36:01.161Z,12.95
2022-11-12T18:38:49.948Z,12.96
2022-11-12T18:41:35.231Z,13.05
2022-11-12T18:44:25.727Z,13.04
2022-11-12T18:47:11.448Z,12.74
2022-11-12T18:49:56.482Z,12.54
2022-11-12T18:52:42.211Z,12.43
2022-11-12T18:55:27.689Z,12.31
2022-11-12T18:58:12.996Z,12.08
2022-11-12T19:01:10.282Z,12.01
2022-11-12T19:03:56.805Z,12.08
2022-11-12T19:06:42.506Z,12.06
2022-11-12T19:09:27.882Z,11.96
2022-11-12T19:12:12.991Z,12.14
2022-11-12T19:14:58.235Z,12.29
2022-11-12T19:17:43.626Z,12.46
2022-11-12T19:20:29.498Z,12.49
2022-11-12T19:23:15.246Z,12.46
2022-11-12T19:26:01.627Z,12.38
2022-11-12T19:28:46.902Z,12.19
2022-11-12T19:31:34.335Z,11.99
2022-11-12T19:34:19.638Z,11.77
2022-11-12T19:37:31.895Z,11.79
2022-11-12T19:40:11.479Z,11.94
2022-11-12T19:42:57.027Z,12.00
2022-11-12T19:45:42.536Z,12.00
2022-11-12T19:48:28.632Z,11.92
2022-11-12T19:51:14.256Z,11.85
2022-11-12T19:53:59.263Z,11.78
2022-11-12T19:56:44.334Z,11.75
2022-11-12T19:59:29.521Z,11.80
2022-11-12T20:02:14.802Z,11.75
2022-11-12T20:04:59.886Z,11.71
2022-11-12T20:07:48.625Z,11.59
2022-11-12T20:10:33.939Z,11.47
2022-11-12T20:13:19.114Z,11.49
2022-11-12T20:16:20.773Z,11.32
2022-11-12T20:19:09.770Z,11.41
2022-11-12T20:21:55.793Z,11.50
2022-11-12T20:24:40.928Z,11.30
2022-11-12T20:27:26.041Z,11.38
2022-11-12T20:30:11.458Z,11.36
2022-11-12T20:32:56.548Z,11.17
2022-11-12T20:35:41.966Z,11.01
2022-11-12T20:38:28.153Z,11.02
2022-11-12T20:41:16.442Z,10.67
2022-11-12T20:44:02.580Z,10.59
2022-11-12T20:46:47.662Z,10.62
2022-11-12T20:49:33.356Z,10.86
2022-11-12T20:52:18.673Z,11.16
2022-11-12T20:55:03.859Z,11.31
2022-11-12T20:57:49.074Z,11.41
2022-11-12T21:00:34.380Z,11.47
2022-11-12T21:03:19.553Z,11.37
2022-11-12T21:06:07.109Z,11.31
2022-11-12T21:08:52.730Z,11.06
2022-11-12T21:11:38.238Z,11.07
2022-11-12T21:14:23.493Z,11.12
2022-11-12T21:17:09.097Z,11.12
2022-11-12T21:19:54.045Z,11.15
2022-11-12T21:22:39.209Z,11.07
2022-11-12T21:25:24.721Z,11.00
2022-11-12T21:28:09.819Z,10.96
2022-11-12T21:31:01.803Z,10.95
2022-11-12T21:33:51.258Z,11.06
2022-11-12T21:36:36.370Z,10.90
2022-11-12T21:39:21.521Z,10.80
2022-11-12T21:42:07.028Z,10.95
2022-11-12T21:44:52.350Z,11.06
2022-11-12T21:47:38.006Z,11.07
2022-11-12T21:50:23.069Z,11.09
2022-11-12T21:53:08.230Z,11.19
2022-11-12T21:55:53.420Z,11.14
2022-11-12T21:58:39.257Z,10.92
2022-11-12T22:01:25.498Z,10.99
2022-11-12T22:04:15.497Z,10.92
2022-11-12T22:07:03.524Z,10.94
2022-11-12T22:09:50.294Z,11.03
2022-11-12T22:12:38.935Z,10.78
2022-11-12T22:15:24.504Z,10.56
2022-11-12T22:18:09.663Z,10.49
2022-11-12T22:20:59.117Z,10.56
2022-11-12T22:23:44.458Z,10.58
2022-11-12T22:26:29.767Z,10.71
2022-11-12T22:29:14.945Z,10.71
2022-11-12T22:32:00.115Z,10.41
2022-11-12T22:34:49.311Z,10.18
2022-11-12T22:37:34.822Z,9.86
2022-11-12T22:40:20.063Z,10.01
2022-11-12T22:43:05.214Z,10.21
2022-11-12T22:45:50.154Z,10.42
2022-11-12T22:48:35.351Z,10.63
2022-11-12T22:51:23.371Z,10.66
2022-11-12T22:54:10.095Z,10.53
2022-11-12T22:56:55.184Z,10.04
2022-11-12T22:59:40.577Z,9.96
2022-11-12T23:02:25.812Z,9.37
2022-11-12T23:05:10.924Z,8.87
2022-11-12T23:07:56.036Z,8.87
2022-11-12T23:10:45.652Z,9.21
2022-11-12T23:13:31.864Z,9.31
2022-11-12T23:16:20.031Z,9.37
2022-11-12T23:19:04.992Z,9.40
2022-11-12T23:21:50.104Z,9.60
2022-11-12T23:24:35.116Z,9.86
2022-11-12T23:27:20.474Z,9.97
2022-11-12T23:30:05.862Z,9.91
2022-11-12T23:32:51.001Z,9.75
2022-11-12T23:35:36.281Z,9.74
2022-11-12T23:38:21.418Z,9.84
2022-11-12T23:41:07.636Z,9.82
2022-11-12T23:43:57.592Z,9.86
2022-11-12T23:46:42.909Z,9.86
2022-11-12T23:49:28.057Z,9.87
2022-11-12T23:52:13.106Z,9.86
2022-11-12T23:54:59.000Z,9.88
2022-11-12T23:57:44.242Z,9.70
